Western Head, Canada
Current Conditions -  °F | °C
As of 5:00 AM on Friday 24 Oct 2014 (Local Time) from CYZX Reporting Station
Light Rain Light Rain  
Wind Chill: 54°   Ceiling: 1400
Heat Index: 54°   Visibility: 5mi
Dew Point: 52°   Wind: 15mph
Humidity: 94%   Direction: 50°NE
Pressure: 29.6"   Gusts: 21mph
Location:  43.99°N, 64.68°W
Report Text: CYZX 240800Z 05013G18KT 5SM -RA BR SCT007 OVC014 12/11 A2960 RMK SF4SC4 WNDY HILL UNAVBL SLP026
Loading
Personal Weather Stations






























Interactive Weather Map
Tropical Storm Tracking
New forecast layout! Learn more

10-Day Weather Forecast

Advertisements
Track Severe Weather on mobile